Street, United Kingdom
Current Conditions -  °F | °C
As of 3:50 AM on Thursday 27 Nov 2014 (Local Time) from EGDY Reporting Station
Haze Haze  
Wind Chill: 45°   Ceiling: 800
Heat Index: 45°   Visibility: 0.75mi
Dew Point: 45°   Wind: 1mph
Humidity: 100%   Direction: 190°S
Pressure: 29.68"   Gusts: NA
Location:  51.12°N, 2.74°W
Report Text: EGDY 270350Z 19001KT 1200 BR SCT003 BKN008 07/07 Q1005 AMB AMB
Loading
Personal Weather Stations






























Interactive Weather Map New forecast layout! Learn more

10-Day Weather Forecast

Advertisements
Track Severe Weather on mobile